sensor_id;sensor_type;location;lat;lon;timestamp;temperature;humidity
19256;DHT22;9762;52.490;13.410;2022-12-20T00:01:19;8.10;99.90
19256;DHT22;9762;52.490;13.410;2022-12-20T00:03:45;8.10;99.90
19256;DHT22;9762;52.490;13.410;2022-12-20T00:06:12;8.00;99.90
19256;DHT22;9762;52.490;13.410;2022-12-20T00:08:39;8.00;99.90
19256;DHT22;9762;52.490;13.410;2022-12-20T00:11:06;8.00;99.90
19256;DHT22;9762;52.490;13.410;2022-12-20T00:13:32;8.00;99.90
19256;DHT22;9762;52.490;13.410;2022-12-20T00:16:15;8.10;99.90
19256;DHT22;9762;52.490;13.410;2022-12-20T00:18:41;8.10;99.90
19256;DHT22;9762;52.490;13.410;2022-12-20T00:21:10;8.10;99.90
19256;DHT22;9762;52.490;13.410;2022-12-20T00:23:36;8.10;99.90
19256;DHT22;9762;52.490;13.410;2022-12-20T00:26:11;8.10;99.90
19256;DHT22;9762;52.490;13.410;2022-12-20T00:28:38;8.10;99.90
19256;DHT22;9762;52.490;13.410;2022-12-20T00:31:05;8.10;99.90
19256;DHT22;9762;52.490;13.410;2022-12-20T00:33:32;8.20;99.90
19256;DHT22;9762;52.490;13.410;2022-12-20T00:35:58;8.20;99.90
19256;DHT22;9762;52.490;13.410;2022-12-20T00:38:24;8.20;99.90
19256;DHT22;9762;52.490;13.410;2022-12-20T00:43:31;8.30;99.90
19256;DHT22;9762;52.490;13.410;2022-12-20T00:45:57;8.30;99.90
19256;DHT22;9762;52.490;13.410;2022-12-20T00:48:24;8.20;99.90
19256;DHT22;9762;52.490;13.410;2022-12-20T00:50:50;8.20;99.90
19256;DHT22;9762;52.490;13.410;2022-12-20T00:53:16;8.20;99.90
19256;DHT22;9762;52.490;13.410;2022-12-20T00:55:45;8.20;99.90
19256;DHT22;9762;52.490;13.410;2022-12-20T00:58:11;8.20;99.90
19256;DHT22;9762;52.490;13.410;2022-12-20T01:00:38;8.20;99.90
19256;DHT22;9762;52.490;13.410;2022-12-20T01:03:04;8.20;99.90
19256;DHT22;9762;52.490;13.410;2022-12-20T01:05:30;8.20;99.90
19256;DHT22;9762;52.490;13.410;2022-12-20T01:07:56;8.30;99.90
19256;DHT22;9762;52.490;13.410;2022-12-20T01:10:22;8.20;99.90
19256;DHT22;9762;52.490;13.410;2022-12-20T01:12:48;8.30;99.90
19256;DHT22;9762;52.490;13.410;2022-12-20T01:15:14;8.20;99.90
19256;DHT22;9762;52.490;13.410;2022-12-20T01:17:40;8.30;99.90
19256;DHT22;9762;52.490;13.410;2022-12-20T01:20:06;8.30;99.90
19256;DHT22;9762;52.490;13.410;2022-12-20T01:22:32;8.30;99.90
19256;DHT22;9762;52.490;13.410;2022-12-20T01:24:58;8.30;99.90
19256;DHT22;9762;52.490;13.410;2022-12-20T01:27:23;8.30;99.90
19256;DHT22;9762;52.490;13.410;2022-12-20T01:29:49;8.30;99.90
19256;DHT22;9762;52.490;13.410;2022-12-20T01:32:15;8.30;99.90
19256;DHT22;9762;52.490;13.410;2022-12-20T01:34:41;8.30;99.90
19256;DHT22;9762;52.490;13.410;2022-12-20T01:37:07;8.30;99.90
19256;DHT22;9762;52.490;13.410;2022-12-20T01:39:32;8.30;99.90
19256;DHT22;9762;52.490;13.410;2022-12-20T01:41:58;8.30;99.90
19256;DHT22;9762;52.490;13.410;2022-12-20T01:46:50;8.20;99.90
19256;DHT22;9762;52.490;13.410;2022-12-20T01:49:29;8.30;99.90
19256;DHT22;9762;52.490;13.410;2022-12-20T01:52:06;8.30;99.90
19256;DHT22;9762;52.490;13.410;2022-12-20T01:54:42;8.30;99.90
19256;DHT22;9762;52.490;13.410;2022-12-20T01:57:17;8.30;99.90
19256;DHT22;9762;52.490;13.410;2022-12-20T01:59:45;8.30;99.90
19256;DHT22;9762;52.490;13.410;2022-12-20T02:02:13;8.30;99.90
19256;DHT22;9762;52.490;13.410;2022-12-20T02:04:39;8.30;99.90
19256;DHT22;9762;52.490;13.410;2022-12-20T02:07:05;8.20;99.90
19256;DHT22;9762;52.490;13.410;2022-12-20T02:09:34;8.30;99.90
19256;DHT22;9762;52.490;13.410;2022-12-20T02:15:03;8.30;99.90
19256;DHT22;9762;52.490;13.410;2022-12-20T02:20:21;8.40;99.90
19256;DHT22;9762;52.490;13.410;2022-12-20T02:28:59;8.40;99.90
19256;DHT22;9762;52.490;13.410;2022-12-20T02:31:36;8.40;99.90
19256;DHT22;9762;52.490;13.410;2022-12-20T02:34:05;8.40;99.90
19256;DHT22;9762;52.490;13.410;2022-12-20T02:36:31;8.50;99.90
19256;DHT22;9762;52.490;13.410;2022-12-20T02:38:57;8.40;99.90
19256;DHT22;9762;52.490;13.410;2022-12-20T02:41:28;8.40;99.90
19256;DHT22;9762;52.490;13.410;2022-12-20T02:44:06;8.40;99.90
19256;DHT22;9762;52.490;13.410;2022-12-20T02:47:05;8.40;99.90
19256;DHT22;9762;52.490;13.410;2022-12-20T02:49:34;8.40;99.90
19256;DHT22;9762;52.490;13.410;2022-12-20T02:52:04;8.40;99.90
19256;DHT22;9762;52.490;13.410;2022-12-20T02:54:31;8.50;99.90
19256;DHT22;9762;52.490;13.410;2022-12-20T03:00:05;8.50;99.90
19256;DHT22;9762;52.490;13.410;2022-12-20T03:02:33;8.50;99.90
19256;DHT22;9762;52.490;13.410;2022-12-20T03:05:22;8.50;99.90
19256;DHT22;9762;52.490;13.410;2022-12-20T03:07:48;8.60;99.80
19256;DHT22;9762;52.490;13.410;2022-12-20T03:10:15;8.60;99.70
19256;DHT22;9762;52.490;13.410;2022-12-20T03:12:41;8.70;99.70
19256;DHT22;9762;52.490;13.410;2022-12-20T03:15:06;8.70;99.70
19256;DHT22;9762;52.490;13.410;2022-12-20T03:17:32;8.70;99.60
19256;DHT22;9762;52.490;13.410;2022-12-20T03:19:58;8.70;99.60
19256;DHT22;9762;52.490;13.410;2022-12-20T03:22:23;8.70;99.60
19256;DHT22;9762;52.490;13.410;2022-12-20T03:24:49;8.70;99.50
19256;DHT22;9762;52.490;13.410;2022-12-20T03:27:15;8.70;99.50
19256;DHT22;9762;52.490;13.410;2022-12-20T03:29:41;8.70;99.40
19256;DHT22;9762;52.490;13.410;2022-12-20T03:32:06;8.60;99.30
19256;DHT22;9762;52.490;13.410;2022-12-20T03:34:32;8.70;99.40
19256;DHT22;9762;52.490;13.410;2022-12-20T03:36:58;8.60;99.30
19256;DHT22;9762;52.490;13.410;2022-12-20T03:39:23;8.60;99.40
19256;DHT22;9762;52.490;13.410;2022-12-20T03:41:49;8.60;99.60
19256;DHT22;9762;52.490;13.410;2022-12-20T03:44:14;8.60;99.50
19256;DHT22;9762;52.490;13.410;2022-12-20T03:46:40;8.70;99.40
19256;DHT22;9762;52.490;13.410;2022-12-20T03:49:06;8.70;99.30
19256;DHT22;9762;52.490;13.410;2022-12-20T03:51:31;8.70;99.30
19256;DHT22;9762;52.490;13.410;2022-12-20T03:53:57;8.70;99.30
19256;DHT22;9762;52.490;13.410;2022-12-20T03:56:22;8.80;99.30
19256;DHT22;9762;52.490;13.410;2022-12-20T03:58:48;8.80;99.20
19256;DHT22;9762;52.490;13.410;2022-12-20T04:01:23;8.70;99.30
19256;DHT22;9762;52.490;13.410;2022-12-20T04:03:49;8.70;99.30
19256;DHT22;9762;52.490;13.410;2022-12-20T04:06:16;8.70;99.40
19256;DHT22;9762;52.490;13.410;2022-12-20T04:08:41;8.80;99.30
19256;DHT22;9762;52.490;13.410;2022-12-20T04:11:07;8.80;99.30
19256;DHT22;9762;52.490;13.410;2022-12-20T04:13:50;8.80;99.20
19256;DHT22;9762;52.490;13.410;2022-12-20T04:16:19;8.90;99.20
19256;DHT22;9762;52.490;13.410;2022-12-20T04:18:45;8.90;99.10
19256;DHT22;9762;52.490;13.410;2022-12-20T04:21:12;9.00;99.10
19256;DHT22;9762;52.490;13.410;2022-12-20T04:23:39;9.00;99.00
19256;DHT22;9762;52.490;13.410;2022-12-20T04:26:07;9.00;98.90
19256;DHT22;9762;52.490;13.410;2022-12-20T04:28:33;9.00;98.90
19256;DHT22;9762;52.490;13.410;2022-12-20T04:30:59;9.00;98.80
19256;DHT22;9762;52.490;13.410;2022-12-20T04:33:25;9.00;98.90
19256;DHT22;9762;52.490;13.410;2022-12-20T04:35:52;8.90;98.80
19256;DHT22;9762;52.490;13.410;2022-12-20T04:38:19;8.90;98.90
19256;DHT22;9762;52.490;13.410;2022-12-20T04:40:48;8.90;98.90
19256;DHT22;9762;52.490;13.410;2022-12-20T04:43:14;8.90;98.90
19256;DHT22;9762;52.490;13.410;2022-12-20T04:45:40;8.90;98.80
19256;DHT22;9762;52.490;13.410;2022-12-20T04:48:06;8.80;98.80
19256;DHT22;9762;52.490;13.410;2022-12-20T04:50:31;8.90;98.80
19256;DHT22;9762;52.490;13.410;2022-12-20T04:52:57;8.90;98.80
19256;DHT22;9762;52.490;13.410;2022-12-20T04:55:41;8.90;98.70
19256;DHT22;9762;52.490;13.410;2022-12-20T04:58:07;8.90;98.70
19256;DHT22;9762;52.490;13.410;2022-12-20T05:00:33;8.90;98.60
19256;DHT22;9762;52.490;13.410;2022-12-20T05:02:59;8.80;98.60
19256;DHT22;9762;52.490;13.410;2022-12-20T05:05:25;8.80;98.60
19256;DHT22;9762;52.490;13.410;2022-12-20T05:07:52;8.80;98.60
19256;DHT22;9762;52.490;13.410;2022-12-20T05:10:18;8.80;98.60
19256;DHT22;9762;52.490;13.410;2022-12-20T05:12:43;8.70;98.70
19256;DHT22;9762;52.490;13.410;2022-12-20T05:15:10;8.70;98.70
19256;DHT22;9762;52.490;13.410;2022-12-20T05:17:36;8.60;98.80
19256;DHT22;9762;52.490;13.410;2022-12-20T05:20:03;8.60;99.00
19256;DHT22;9762;52.490;13.410;2022-12-20T05:22:29;8.60;99.00
19256;DHT22;9762;52.490;13.410;2022-12-20T05:25:13;8.60;99.10
19256;DHT22;9762;52.490;13.410;2022-12-20T05:27:57;8.60;99.20
19256;DHT22;9762;52.490;13.410;2022-12-20T05:30:24;8.60;99.20
19256;DHT22;9762;52.490;13.410;2022-12-20T05:32:50;8.60;99.20
19256;DHT22;9762;52.490;13.410;2022-12-20T05:35:16;8.80;99.30
19256;DHT22;9762;52.490;13.410;2022-12-20T05:37:41;8.70;99.20
19256;DHT22;9762;52.490;13.410;2022-12-20T05:40:07;8.70;99.10
19256;DHT22;9762;52.490;13.410;2022-12-20T05:42:33;8.70;99.10
19256;DHT22;9762;52.490;13.410;2022-12-20T05:44:59;8.70;99.20
19256;DHT22;9762;52.490;13.410;2022-12-20T05:47:28;8.70;99.20
19256;DHT22;9762;52.490;13.410;2022-12-20T05:49:58;8.70;99.10
19256;DHT22;9762;52.490;13.410;2022-12-20T05:52:24;8.70;99.20
19256;DHT22;9762;52.490;13.410;2022-12-20T05:54:49;8.80;99.30
19256;DHT22;9762;52.490;13.410;2022-12-20T05:57:15;8.80;99.30
19256;DHT22;9762;52.490;13.410;2022-12-20T05:59:41;8.80;99.60
19256;DHT22;9762;52.490;13.410;2022-12-20T06:02:06;8.80;99.60
19256;DHT22;9762;52.490;13.410;2022-12-20T06:04:32;8.80;99.50
19256;DHT22;9762;52.490;13.410;2022-12-20T06:06:58;8.80;99.50
19256;DHT22;9762;52.490;13.410;2022-12-20T06:09:24;8.80;99.60
19256;DHT22;9762;52.490;13.410;2022-12-20T06:11:50;8.90;99.60
19256;DHT22;9762;52.490;13.410;2022-12-20T06:14:15;8.90;99.60
19256;DHT22;9762;52.490;13.410;2022-12-20T06:16:41;8.90;99.60
19256;DHT22;9762;52.490;13.410;2022-12-20T06:19:06;8.90;99.50
19256;DHT22;9762;52.490;13.410;2022-12-20T06:21:32;9.10;99.60
19256;DHT22;9762;52.490;13.410;2022-12-20T06:23:57;9.00;99.60
19256;DHT22;9762;52.490;13.410;2022-12-20T06:26:23;9.00;99.70
19256;DHT22;9762;52.490;13.410;2022-12-20T06:28:49;9.00;99.70
19256;DHT22;9762;52.490;13.410;2022-12-20T06:31:19;9.10;99.90
19256;DHT22;9762;52.490;13.410;2022-12-20T06:33:44;9.10;99.90
19256;DHT22;9762;52.490;13.410;2022-12-20T06:36:10;9.10;99.80
19256;DHT22;9762;52.490;13.410;2022-12-20T06:38:36;9.20;99.90
19256;DHT22;9762;52.490;13.410;2022-12-20T06:41:02;9.20;99.90
19256;DHT22;9762;52.490;13.410;2022-12-20T06:43:27;9.20;99.90
19256;DHT22;9762;52.490;13.410;2022-12-20T06:45:53;9.20;99.90
19256;DHT22;9762;52.490;13.410;2022-12-20T06:48:20;9.20;99.90
19256;DHT22;9762;52.490;13.410;2022-12-20T06:50:48;9.20;99.90
19256;DHT22;9762;52.490;13.410;2022-12-20T06:53:14;9.20;99.90
19256;DHT22;9762;52.490;13.410;2022-12-20T06:55:39;9.20;99.90
19256;DHT22;9762;52.490;13.410;2022-12-20T06:58:05;9.20;99.90
19256;DHT22;9762;52.490;13.410;2022-12-20T07:00:31;9.20;99.90
19256;DHT22;9762;52.490;13.410;2022-12-20T07:02:57;9.30;99.90
19256;DHT22;9762;52.490;13.410;2022-12-20T07:05:22;9.30;99.90
19256;DHT22;9762;52.490;13.410;2022-12-20T07:07:48;9.30;99.90
19256;DHT22;9762;52.490;13.410;2022-12-20T07:10:14;9.20;99.90
19256;DHT22;9762;52.490;13.410;2022-12-20T07:12:40;9.20;99.90
19256;DHT22;9762;52.490;13.410;2022-12-20T07:15:06;9.20;99.90
19256;DHT22;9762;52.490;13.410;2022-12-20T07:17:32;9.30;99.90
19256;DHT22;9762;52.490;13.410;2022-12-20T07:19:58;9.30;99.90
19256;DHT22;9762;52.490;13.410;2022-12-20T07:22:24;9.30;99.90
19256;DHT22;9762;52.490;13.410;2022-12-20T07:24:49;9.30;99.90
19256;DHT22;9762;52.490;13.410;2022-12-20T07:27:15;9.20;99.90
19256;DHT22;9762;52.490;13.410;2022-12-20T07:29:41;9.30;99.90
19256;DHT22;9762;52.490;13.410;2022-12-20T07:32:07;9.30;99.90
19256;DHT22;9762;52.490;13.410;2022-12-20T07:34:32;9.30;99.90
19256;DHT22;9762;52.490;13.410;2022-12-20T07:36:58;9.30;99.90
19256;DHT22;9762;52.490;13.410;2022-12-20T07:39:24;9.30;99.90
19256;DHT22;9762;52.490;13.410;2022-12-20T07:41:54;9.40;99.90
19256;DHT22;9762;52.490;13.410;2022-12-20T07:44:20;9.40;99.90
19256;DHT22;9762;52.490;13.410;2022-12-20T07:46:46;9.50;99.90
19256;DHT22;9762;52.490;13.410;2022-12-20T07:49:12;9.50;99.90
19256;DHT22;9762;52.490;13.410;2022-12-20T07:51:41;9.60;99.90
19256;DHT22;9762;52.490;13.410;2022-12-20T07:54:29;9.60;99.90
19256;DHT22;9762;52.490;13.410;2022-12-20T07:56:58;9.70;99.90
19256;DHT22;9762;52.490;13.410;2022-12-20T07:59:38;9.80;99.90
19256;DHT22;9762;52.490;13.410;2022-12-20T08:02:10;9.80;99.90
19256;DHT22;9762;52.490;13.410;2022-12-20T08:04:38;9.90;99.90
19256;DHT22;9762;52.490;13.410;2022-12-20T08:07:04;10.00;99.90
19256;DHT22;9762;52.490;13.410;2022-12-20T08:09:36;10.00;99.90
19256;DHT22;9762;52.490;13.410;2022-12-20T08:12:04;10.10;99.90
19256;DHT22;9762;52.490;13.410;2022-12-20T08:14:31;10.10;99.90
19256;DHT22;9762;52.490;13.410;2022-12-20T08:16:57;10.10;99.90
19256;DHT22;9762;52.490;13.410;2022-12-20T08:19:22;10.10;99.90
19256;DHT22;9762;52.490;13.410;2022-12-20T08:21:48;10.20;99.90
19256;DHT22;9762;52.490;13.410;2022-12-20T08:24:14;10.20;99.90
19256;DHT22;9762;52.490;13.410;2022-12-20T08:26:40;10.20;99.90
19256;DHT22;9762;52.490;13.410;2022-12-20T08:29:07;10.30;99.90
19256;DHT22;9762;52.490;13.410;2022-12-20T08:31:37;10.30;99.90
19256;DHT22;9762;52.490;13.410;2022-12-20T08:34:03;10.30;99.90
19256;DHT22;9762;52.490;13.410;2022-12-20T08:36:29;10.30;99.90
19256;DHT22;9762;52.490;13.410;2022-12-20T08:38:54;10.30;99.90
19256;DHT22;9762;52.490;13.410;2022-12-20T08:41:20;10.30;99.90
19256;DHT22;9762;52.490;13.410;2022-12-20T08:43:45;10.40;99.90
19256;DHT22;9762;52.490;13.410;2022-12-20T08:46:11;10.40;99.90
19256;DHT22;9762;52.490;13.410;2022-12-20T08:48:37;10.40;99.90
19256;DHT22;9762;52.490;13.410;2022-12-20T08:51:08;10.40;99.90
19256;DHT22;9762;52.490;13.410;2022-12-20T08:53:34;10.40;99.90
19256;DHT22;9762;52.490;13.410;2022-12-20T08:58:32;10.40;99.90
19256;DHT22;9762;52.490;13.410;2022-12-20T09:00:59;10.50;99.90
19256;DHT22;9762;52.490;13.410;2022-12-20T09:03:25;10.40;99.90
19256;DHT22;9762;52.490;13.410;2022-12-20T09:05:51;10.40;99.90
19256;DHT22;9762;52.490;13.410;2022-12-20T09:08:17;10.40;99.90
19256;DHT22;9762;52.490;13.410;2022-12-20T09:10:42;10.40;99.90
19256;DHT22;9762;52.490;13.410;2022-12-20T09:13:09;10.40;99.90
19256;DHT22;9762;52.490;13.410;2022-12-20T09:15:35;10.40;99.90
19256;DHT22;9762;52.490;13.410;2022-12-20T09:18:01;10.50;99.90
19256;DHT22;9762;52.490;13.410;2022-12-20T09:20:28;10.40;99.90
19256;DHT22;9762;52.490;13.410;2022-12-20T09:22:54;10.40;99.90
19256;DHT22;9762;52.490;13.410;2022-12-20T09:25:19;10.50;99.90
19256;DHT22;9762;52.490;13.410;2022-12-20T09:27:45;10.50;99.90
19256;DHT22;9762;52.490;13.410;2022-12-20T09:30:11;10.50;99.90
19256;DHT22;9762;52.490;13.410;2022-12-20T09:32:36;10.50;99.90
19256;DHT22;9762;52.490;13.410;2022-12-20T09:35:03;10.50;99.90
19256;DHT22;9762;52.490;13.410;2022-12-20T09:37:30;10.50;99.90
19256;DHT22;9762;52.490;13.410;2022-12-20T09:39:56;10.50;99.90
19256;DHT22;9762;52.490;13.410;2022-12-20T09:42:25;10.50;99.90
19256;DHT22;9762;52.490;13.410;2022-12-20T09:45:04;10.60;99.90
19256;DHT22;9762;52.490;13.410;2022-12-20T09:47:33;10.60;99.90
19256;DHT22;9762;52.490;13.410;2022-12-20T09:50:01;10.70;99.90
19256;DHT22;9762;52.490;13.410;2022-12-20T09:52:55;10.70;99.90
19256;DHT22;9762;52.490;13.410;2022-12-20T09:55:30;10.80;99.90
19256;DHT22;9762;52.490;13.410;2022-12-20T10:00:28;11.00;99.90
19256;DHT22;9762;52.490;13.410;2022-12-20T10:02:55;11.00;99.90
19256;DHT22;9762;52.490;13.410;2022-12-20T10:05:47;11.10;99.90
19256;DHT22;9762;52.490;13.410;2022-12-20T10:16:54;11.20;99.90
19256;DHT22;9762;52.490;13.410;2022-12-20T10:24:29;11.20;99.90
19256;DHT22;9762;52.490;13.410;2022-12-20T10:26:57;11.20;99.90
19256;DHT22;9762;52.490;13.410;2022-12-20T10:29:27;11.20;99.90
19256;DHT22;9762;52.490;13.410;2022-12-20T10:31:58;11.30;99.90
19256;DHT22;9762;52.490;13.410;2022-12-20T10:34:25;11.30;99.90
19256;DHT22;9762;52.490;13.410;2022-12-20T10:37:10;11.30;99.90
19256;DHT22;9762;52.490;13.410;2022-12-20T10:39:46;11.30;99.90
19256;DHT22;9762;52.490;13.410;2022-12-20T10:42:44;11.30;99.90
19256;DHT22;9762;52.490;13.410;2022-12-20T10:47:50;11.30;99.90
19256;DHT22;9762;52.490;13.410;2022-12-20T10:50:21;11.30;99.90
19256;DHT22;9762;52.490;13.410;2022-12-20T10:55:42;11.50;99.90
19256;DHT22;9762;52.490;13.410;2022-12-20T10:58:32;11.50;99.90
19256;DHT22;9762;52.490;13.410;2022-12-20T11:01:19;11.60;99.90
19256;DHT22;9762;52.490;13.410;2022-12-20T11:06:21;11.80;99.90
19256;DHT22;9762;52.490;13.410;2022-12-20T11:08:48;11.80;99.90
19256;DHT22;9762;52.490;13.410;2022-12-20T11:11:22;11.90;99.90
19256;DHT22;9762;52.490;13.410;2022-12-20T11:13:49;11.90;99.90
19256;DHT22;9762;52.490;13.410;2022-12-20T11:16:28;11.90;99.90
19256;DHT22;9762;52.490;13.410;2022-12-20T11:40:29;11.90;99.60
19256;DHT22;9762;52.490;13.410;2022-12-20T11:46:14;12.00;99.70
19256;DHT22;9762;52.490;13.410;2022-12-20T11:51:31;12.10;99.30
19256;DHT22;9762;52.490;13.410;2022-12-20T11:54:06;12.10;99.10
19256;DHT22;9762;52.490;13.410;2022-12-20T11:56:39;12.10;99.10
19256;DHT22;9762;52.490;13.410;2022-12-20T11:59:22;12.10;99.00
19256;DHT22;9762;52.490;13.410;2022-12-20T12:02:11;12.00;99.00
19256;DHT22;9762;52.490;13.410;2022-12-20T12:04:50;12.00;99.00
19256;DHT22;9762;52.490;13.410;2022-12-20T12:07:24;12.00;99.10
19256;DHT22;9762;52.490;13.410;2022-12-20T12:10:05;12.00;99.60
19256;DHT22;9762;52.490;13.410;2022-12-20T12:12:43;12.00;99.10
19256;DHT22;9762;52.490;13.410;2022-12-20T12:15:18;12.00;99.20
19256;DHT22;9762;52.490;13.410;2022-12-20T12:20:25;12.00;99.60
19256;DHT22;9762;52.490;13.410;2022-12-20T12:23:00;12.10;99.90
19256;DHT22;9762;52.490;13.410;2022-12-20T12:25:27;12.20;99.70
19256;DHT22;9762;52.490;13.410;2022-12-20T12:27:53;12.30;99.50
19256;DHT22;9762;52.490;13.410;2022-12-20T12:30:19;12.40;99.20
19256;DHT22;9762;52.490;13.410;2022-12-20T12:33:04;12.40;98.90
19256;DHT22;9762;52.490;13.410;2022-12-20T12:40:56;12.50;98.30
19256;DHT22;9762;52.490;13.410;2022-12-20T12:46:21;12.40;98.50
19256;DHT22;9762;52.490;13.410;2022-12-20T12:51:26;12.30;98.80
19256;DHT22;9762;52.490;13.410;2022-12-20T12:54:01;12.30;99.10
19256;DHT22;9762;52.490;13.410;2022-12-20T12:56:29;12.30;99.00
19256;DHT22;9762;52.490;13.410;2022-12-20T13:01:52;12.40;98.70
19256;DHT22;9762;52.490;13.410;2022-12-20T13:11:55;12.30;98.30
19256;DHT22;9762;52.490;13.410;2022-12-20T13:25:02;12.10;97.90
19256;DHT22;9762;52.490;13.410;2022-12-20T13:27:34;12.10;97.70
19256;DHT22;9762;52.490;13.410;2022-12-20T13:37:53;12.00;97.50
19256;DHT22;9762;52.490;13.410;2022-12-20T13:40:27;12.00;97.50
19256;DHT22;9762;52.490;13.410;2022-12-20T13:42:57;12.00;97.50
19256;DHT22;9762;52.490;13.410;2022-12-20T13:45:23;12.00;97.30
19256;DHT22;9762;52.490;13.410;2022-12-20T13:47:55;11.90;97.30
19256;DHT22;9762;52.490;13.410;2022-12-20T13:50:31;11.90;97.20
19256;DHT22;9762;52.490;13.410;2022-12-20T13:53:00;11.80;97.30
19256;DHT22;9762;52.490;13.410;2022-12-20T13:55:31;11.80;97.30
19256;DHT22;9762;52.490;13.410;2022-12-20T13:57:57;11.70;97.40
19256;DHT22;9762;52.490;13.410;2022-12-20T14:00:28;11.70;97.40
19256;DHT22;9762;52.490;13.410;2022-12-20T14:02:54;11.60;97.40
19256;DHT22;9762;52.490;13.410;2022-12-20T14:05:25;11.50;97.60
19256;DHT22;9762;52.490;13.410;2022-12-20T14:07:58;11.50;97.60
19256;DHT22;9762;52.490;13.410;2022-12-20T14:10:26;11.50;97.60
19256;DHT22;9762;52.490;13.410;2022-12-20T14:12:53;11.40;97.50
19256;DHT22;9762;52.490;13.410;2022-12-20T14:17:54;11.40;97.60
19256;DHT22;9762;52.490;13.410;2022-12-20T14:20:24;11.40;97.50
19256;DHT22;9762;52.490;13.410;2022-12-20T14:30:46;11.30;97.20
19256;DHT22;9762;52.490;13.410;2022-12-20T14:33:34;11.30;97.20
19256;DHT22;9762;52.490;13.410;2022-12-20T14:36:17;11.30;97.00
19256;DHT22;9762;52.490;13.410;2022-12-20T14:38:48;11.30;97.00
19256;DHT22;9762;52.490;13.410;2022-12-20T14:46:33;11.20;96.80
19256;DHT22;9762;52.490;13.410;2022-12-20T14:51:44;11.20;97.00
19256;DHT22;9762;52.490;13.410;2022-12-20T14:54:24;11.20;96.90
19256;DHT22;9762;52.490;13.410;2022-12-20T14:56:51;11.10;96.90
19256;DHT22;9762;52.490;13.410;2022-12-20T14:59:24;11.10;96.80
19256;DHT22;9762;52.490;13.410;2022-12-20T15:01:51;11.10;97.00
19256;DHT22;9762;52.490;13.410;2022-12-20T15:04:33;11.10;96.90
19256;DHT22;9762;52.490;13.410;2022-12-20T15:07:00;11.00;96.80
19256;DHT22;9762;52.490;13.410;2022-12-20T15:09:26;11.00;96.90
19256;DHT22;9762;52.490;13.410;2022-12-20T15:11:53;11.00;96.90
19256;DHT22;9762;52.490;13.410;2022-12-20T15:16:59;10.90;97.10
19256;DHT22;9762;52.490;13.410;2022-12-20T15:19:25;10.80;96.70
19256;DHT22;9762;52.490;13.410;2022-12-20T15:21:50;10.90;97.10
19256;DHT22;9762;52.490;13.410;2022-12-20T15:24:20;10.90;97.10
19256;DHT22;9762;52.490;13.410;2022-12-20T15:26:47;10.90;97.00
19256;DHT22;9762;52.490;13.410;2022-12-20T15:29:21;10.90;97.00
19256;DHT22;9762;52.490;13.410;2022-12-20T15:31:47;11.00;96.80
19256;DHT22;9762;52.490;13.410;2022-12-20T15:34:19;10.90;96.80
19256;DHT22;9762;52.490;13.410;2022-12-20T15:36:48;10.90;96.80
19256;DHT22;9762;52.490;13.410;2022-12-20T15:39:13;10.80;96.80
19256;DHT22;9762;52.490;13.410;2022-12-20T15:41:41;10.90;96.80
19256;DHT22;9762;52.490;13.410;2022-12-20T15:44:19;10.90;96.90
19256;DHT22;9762;52.490;13.410;2022-12-20T15:46:45;10.90;96.80
19256;DHT22;9762;52.490;13.410;2022-12-20T15:49:16;10.90;96.80
19256;DHT22;9762;52.490;13.410;2022-12-20T15:51:43;10.90;96.90
19256;DHT22;9762;52.490;13.410;2022-12-20T15:56:46;10.80;96.80
19256;DHT22;9762;52.490;13.410;2022-12-20T15:59:12;10.80;96.90
19256;DHT22;9762;52.490;13.410;2022-12-20T16:01:38;10.80;97.00
19256;DHT22;9762;52.490;13.410;2022-12-20T16:04:05;10.80;97.10
19256;DHT22;9762;52.490;13.410;2022-12-20T16:06:31;10.90;97.20
19256;DHT22;9762;52.490;13.410;2022-12-20T16:08:57;10.80;97.00
19256;DHT22;9762;52.490;13.410;2022-12-20T16:11:25;10.80;97.00
19256;DHT22;9762;52.490;13.410;2022-12-20T16:13:56;10.80;97.20
19256;DHT22;9762;52.490;13.410;2022-12-20T16:16:24;10.70;97.20
19256;DHT22;9762;52.490;13.410;2022-12-20T16:18:50;10.70;97.30
19256;DHT22;9762;52.490;13.410;2022-12-20T16:21:26;10.70;97.30
19256;DHT22;9762;52.490;13.410;2022-12-20T16:23:53;10.70;97.30
19256;DHT22;9762;52.490;13.410;2022-12-20T16:26:21;10.70;97.30
19256;DHT22;9762;52.490;13.410;2022-12-20T16:28:47;10.80;97.30
19256;DHT22;9762;52.490;13.410;2022-12-20T16:33:45;10.80;97.50
19256;DHT22;9762;52.490;13.410;2022-12-20T16:36:11;10.90;97.20
19256;DHT22;9762;52.490;13.410;2022-12-20T16:38:38;10.90;97.10
19256;DHT22;9762;52.490;13.410;2022-12-20T16:41:13;10.90;97.10
19256;DHT22;9762;52.490;13.410;2022-12-20T16:43:39;10.80;97.00
19256;DHT22;9762;52.490;13.410;2022-12-20T16:46:05;10.80;97.20
19256;DHT22;9762;52.490;13.410;2022-12-20T16:48:30;10.80;97.30
19256;DHT22;9762;52.490;13.410;2022-12-20T16:50:56;10.80;97.30
19256;DHT22;9762;52.490;13.410;2022-12-20T16:53:22;10.80;97.80
19256;DHT22;9762;52.490;13.410;2022-12-20T16:55:48;10.80;97.30
19256;DHT22;9762;52.490;13.410;2022-12-20T16:58:13;10.80;97.10
19256;DHT22;9762;52.490;13.410;2022-12-20T17:00:39;10.90;96.90
19256;DHT22;9762;52.490;13.410;2022-12-20T17:03:04;10.90;96.80
19256;DHT22;9762;52.490;13.410;2022-12-20T17:05:33;10.90;96.60
19256;DHT22;9762;52.490;13.410;2022-12-20T17:08:01;10.90;96.50
19256;DHT22;9762;52.490;13.410;2022-12-20T17:10:27;10.90;96.30
19256;DHT22;9762;52.490;13.410;2022-12-20T17:12:54;10.80;96.30
19256;DHT22;9762;52.490;13.410;2022-12-20T17:15:25;10.90;96.40
19256;DHT22;9762;52.490;13.410;2022-12-20T17:17:52;10.80;96.40
19256;DHT22;9762;52.490;13.410;2022-12-20T17:20:20;10.80;96.40
19256;DHT22;9762;52.490;13.410;2022-12-20T17:22:51;10.80;96.40
19256;DHT22;9762;52.490;13.410;2022-12-20T17:25:28;10.80;96.40
19256;DHT22;9762;52.490;13.410;2022-12-20T17:27:54;10.80;96.30
19256;DHT22;9762;52.490;13.410;2022-12-20T17:30:21;10.80;96.40
19256;DHT22;9762;52.490;13.410;2022-12-20T17:32:47;10.80;96.40
19256;DHT22;9762;52.490;13.410;2022-12-20T17:35:23;10.80;96.30
19256;DHT22;9762;52.490;13.410;2022-12-20T17:37:49;10.80;96.30
19256;DHT22;9762;52.490;13.410;2022-12-20T17:40:17;10.70;96.30
19256;DHT22;9762;52.490;13.410;2022-12-20T17:42:42;10.70;96.30
19256;DHT22;9762;52.490;13.410;2022-12-20T17:45:29;10.70;96.40
19256;DHT22;9762;52.490;13.410;2022-12-20T17:47:57;10.70;96.50
19256;DHT22;9762;52.490;13.410;2022-12-20T17:50:23;10.70;96.40
19256;DHT22;9762;52.490;13.410;2022-12-20T17:52:49;10.70;96.40
19256;DHT22;9762;52.490;13.410;2022-12-20T17:55:24;10.70;96.30
19256;DHT22;9762;52.490;13.410;2022-12-20T17:57:50;10.70;96.30
19256;DHT22;9762;52.490;13.410;2022-12-20T18:00:23;10.70;96.30
19256;DHT22;9762;52.490;13.410;2022-12-20T18:02:49;10.70;96.30
19256;DHT22;9762;52.490;13.410;2022-12-20T18:05:15;10.60;96.30
19256;DHT22;9762;52.490;13.410;2022-12-20T18:07:40;10.60;96.40
19256;DHT22;9762;52.490;13.410;2022-12-20T18:10:07;10.60;96.50